createdAt,value
2016-05-21T00:00:03.136Z,39.06
2016-05-21T00:01:03.139Z,38.29
2016-05-21T00:02:03.297Z,36.5
2016-05-21T00:03:03.300Z,36.13
2016-05-21T00:04:03.303Z,35.55
2016-05-21T00:05:03.305Z,35.36
2016-05-21T00:06:03.308Z,34.89
2016-05-21T00:07:03.310Z,34.7
2016-05-21T00:08:03.173Z,34.89
2016-05-21T00:09:03.332Z,34.7
2016-05-21T00:10:03.335Z,34.7
2016-05-21T00:11:03.337Z,34.6
2016-05-21T00:12:03.352Z,34.21
2016-05-21T00:13:03.214Z,34.21
2016-05-21T00:14:03.389Z,34.6
2016-05-21T00:15:03.407Z,34.21
2016-05-21T00:16:03.441Z,34.41
2016-05-21T00:17:03.452Z,34.5
2016-05-21T00:18:03.304Z,34.21
2016-05-21T00:19:03.469Z,34.21
2016-05-21T00:20:03.321Z,34.12
2016-05-21T00:21:03.501Z,33.92
2016-05-21T00:22:03.507Z,33.83
2016-05-21T00:23:03.528Z,33.83
2016-05-21T00:24:03.517Z,33.73
2016-05-21T00:25:03.523Z,34.02
2016-05-21T00:26:03.542Z,34.02
2016-05-21T00:27:03.546Z,33.83
2016-05-21T00:28:03.550Z,34.31
2016-05-21T00:29:03.553Z,33.73
2016-05-21T00:30:03.572Z,33.73
2016-05-21T00:31:03.575Z,33.73
2016-05-21T00:32:03.563Z,33.83
2016-05-21T00:33:03.582Z,33.73
2016-05-21T00:34:03.584Z,33.63
2016-05-21T00:35:03.587Z,33.63
2016-05-21T00:36:03.606Z,33.44
2016-05-21T00:37:03.608Z,34.02
2016-05-21T00:38:03.611Z,33.44
2016-05-21T00:39:03.614Z,33.73
2016-05-21T00:40:03.631Z,33.25
2016-05-21T00:41:04.478Z,33.92
2016-05-21T00:42:03.637Z,34.02
2016-05-21T00:43:03.639Z,33.73
2016-05-21T00:44:03.642Z,33.63
2016-05-21T00:45:03.644Z,33.54
2016-05-21T00:46:03.664Z,33.44
2016-05-21T00:47:03.667Z,33.34
2016-05-21T00:48:03.669Z,33.34
2016-05-21T00:49:03.672Z,33.44
2016-05-21T00:50:03.674Z,33.25
2016-05-21T00:51:03.677Z,33.05
2016-05-21T00:52:03.680Z,33.44
2016-05-21T00:53:03.698Z,32.96
2016-05-21T00:54:03.701Z,33.05
2016-05-21T00:55:03.703Z,33.73
2016-05-21T00:56:03.581Z,33.54
2016-05-21T00:57:03.724Z,33.25
2016-05-21T00:58:03.726Z,33.05
2016-05-21T00:59:03.729Z,33.54
2016-05-21T01:00:03.732Z,33.34
2016-05-21T01:01:03.751Z,33.25
2016-05-21T01:02:04.113Z,32.96
2016-05-21T01:03:03.756Z,32.96
2016-05-21T01:04:03.759Z,33.34
2016-05-21T01:05:03.777Z,33.05
2016-05-21T01:06:03.779Z,33.25
2016-05-21T01:07:03.782Z,33.63
2016-05-21T01:08:03.645Z,32.96
2016-05-21T01:09:03.787Z,33.15
2016-05-21T01:10:03.790Z,33.34
2016-05-21T01:11:04.199Z,33.05
2016-05-21T01:12:03.811Z,33.34
2016-05-21T01:13:03.814Z,33.25
2016-05-21T01:14:03.832Z,33.34
2016-05-21T01:15:03.836Z,32.96
2016-05-21T01:16:03.681Z,33.25
2016-05-21T01:17:03.841Z,32.96
2016-05-21T01:18:03.844Z,32.96
2016-05-21T01:19:03.689Z,33.05
2016-05-21T01:20:03.692Z,33.15
2016-05-21T01:21:03.867Z,32.96
2016-05-21T01:22:03.869Z,33.34
2016-05-21T01:23:03.872Z,33.25
2016-05-21T01:24:03.907Z,32.96
2016-05-21T01:25:03.877Z,33.15
2016-05-21T01:26:03.896Z,33.34
2016-05-21T01:27:03.898Z,33.34
2016-05-21T01:28:03.901Z,32.76
2016-05-21T01:29:03.904Z,33.25
2016-05-21T01:30:03.923Z,33.15
2016-05-21T01:31:03.769Z,33.05
2016-05-21T01:32:03.943Z,33.05
2016-05-21T01:33:03.931Z,33.05
2016-05-21T01:34:03.934Z,33.34
2016-05-21T01:35:03.951Z,32.86
2016-05-21T01:36:03.954Z,32.96
2016-05-21T01:37:03.957Z,33.25
2016-05-21T01:38:03.975Z,32.96
2016-05-21T01:39:03.978Z,33.15
2016-05-21T01:40:03.965Z,32.86
2016-05-21T01:41:03.998Z,33.15
2016-05-21T01:42:03.986Z,33.15
2016-05-21T01:43:03.989Z,32.76
2016-05-21T01:44:04.007Z,32.96
2016-05-21T01:45:04.010Z,32.86
2016-05-21T01:46:04.012Z,32.67
2016-05-21T01:47:04.015Z,32.76
2016-05-21T01:48:04.017Z,32.86
2016-05-21T01:49:04.083Z,32.86
2016-05-21T01:50:04.039Z,32.67
2016-05-21T01:51:04.041Z,32.76
2016-05-21T01:52:04.044Z,32.86
2016-05-21T01:53:04.046Z,32.76
2016-05-21T01:54:04.065Z,32.76
2016-05-21T01:55:04.052Z,32.86
2016-05-21T01:56:04.508Z,32.76
2016-05-21T01:57:03.917Z,32.86
2016-05-21T01:58:04.076Z,32.67
2016-05-21T01:59:04.094Z,32.96
2016-05-21T02:00:04.097Z,32.47
2016-05-21T02:01:04.099Z,32.67
2016-05-21T02:02:04.102Z,32.57
2016-05-21T02:03:04.120Z,32.76
2016-05-21T02:04:04.107Z,32.86
2016-05-21T02:05:04.126Z,32.96
2016-05-21T02:06:04.128Z,32.86
2016-05-21T02:07:04.131Z,32.67
2016-05-21T02:08:04.134Z,32.67
2016-05-21T02:09:04.136Z,32.38
2016-05-21T02:10:04.155Z,32.47
2016-05-21T02:11:04.158Z,32.57
2016-05-21T02:12:04.020Z,32.18
2016-05-21T02:13:04.164Z,32.28
2016-05-21T02:14:04.166Z,32.28
2016-05-21T02:15:04.184Z,32.38
2016-05-21T02:16:04.187Z,32.28
2016-05-21T02:17:04.205Z,32.18
2016-05-21T02:18:04.192Z,32.38
2016-05-21T02:19:04.210Z,32.28
2016-05-21T02:20:04.213Z,32.28
2016-05-21T02:21:04.216Z,32.28
2016-05-21T02:22:04.219Z,32.38
2016-05-21T02:23:04.236Z,32.09
2016-05-21T02:24:04.224Z,32.47
2016-05-21T02:25:04.242Z,32.18
2016-05-21T02:26:04.245Z,32.18
2016-05-21T02:27:04.247Z,32.28
2016-05-21T02:28:04.265Z,32.18
2016-05-21T02:29:04.253Z,32.38
2016-05-21T02:30:04.255Z,32.18
2016-05-21T02:31:04.274Z,32.47
2016-05-21T02:32:04.277Z,32.28
2016-05-21T02:33:04.279Z,32.47
2016-05-21T02:34:04.298Z,32.67
2016-05-21T02:35:04.284Z,32.38
2016-05-21T02:36:04.304Z,32.67
2016-05-21T02:37:04.305Z,32.47
2016-05-21T02:38:04.309Z,32.28
2016-05-21T02:39:04.312Z,32.09
2016-05-21T02:40:04.329Z,32.38
2016-05-21T02:41:04.504Z,32.57
2016-05-21T02:42:04.334Z,32.47
2016-05-21T02:43:04.337Z,32.47
2016-05-21T02:44:04.356Z,32.67
2016-05-21T02:45:04.358Z,32.65
2016-05-21T02:46:04.361Z,32.57
2016-05-21T02:47:04.363Z,32.36
2016-05-21T02:48:04.210Z,32.56
2016-05-21T02:49:04.369Z,32.47
2016-05-21T02:50:04.388Z,32.38
2016-05-21T02:51:04.422Z,32.57
2016-05-21T02:52:04.393Z,32.57
2016-05-21T02:53:04.411Z,32.38
2016-05-21T02:54:04.414Z,32.57
2016-05-21T02:55:04.416Z,32.67
2016-05-21T02:56:04.466Z,32.57
2016-05-21T02:57:04.266Z,32.57
2016-05-21T02:58:04.424Z,32.67
2016-05-21T02:59:04.427Z,32.76
2016-05-21T03:00:04.446Z,32.67
2016-05-21T03:01:04.449Z,32.47
2016-05-21T03:02:04.701Z,32.47
2016-05-21T03:03:04.297Z,32.36
2016-05-21T03:04:04.472Z,32.46
2016-05-21T03:05:04.318Z,32.67
2016-05-21T03:06:04.477Z,32.46
2016-05-21T03:07:04.479Z,32.65
2016-05-21T03:08:04.482Z,32.65
2016-05-21T03:09:04.485Z,32.56
2016-05-21T03:10:04.504Z,32.47
2016-05-21T03:11:04.506Z,32.56
2016-05-21T03:12:04.509Z,32.46
2016-05-21T03:13:04.512Z,32.57
2016-05-21T03:14:04.514Z,32.67
2016-05-21T03:15:04.533Z,32.65
2016-05-21T03:16:04.536Z,32.56
2016-05-21T03:17:04.381Z,32.65
2016-05-21T03:18:04.541Z,32.46
2016-05-21T03:19:04.544Z,32.46
2016-05-21T03:20:04.561Z,32.56
2016-05-21T03:21:04.409Z,32.65
2016-05-21T03:22:04.567Z,32.65
2016-05-21T03:23:04.586Z,32.76
2016-05-21T03:24:04.589Z,32.75
2016-05-21T03:25:04.591Z,32.75
2016-05-21T03:26:04.438Z,32.67
2016-05-21T03:27:04.596Z,32.65
2016-05-21T03:28:04.600Z,32.65
2016-05-21T03:29:04.618Z,32.65
2016-05-21T03:30:04.620Z,32.56
2016-05-21T03:31:04.623Z,32.65
2016-05-21T03:32:04.626Z,32.46
2016-05-21T03:33:04.628Z,32.46
2016-05-21T03:34:04.474Z,32.65
2016-05-21T03:35:04.649Z,32.67
2016-05-21T03:36:04.496Z,32.75
2016-05-21T03:37:04.654Z,32.56
2016-05-21T03:38:04.501Z,32.75
2016-05-21T03:39:04.660Z,32.56
2016-05-21T03:40:04.678Z,32.84
2016-05-21T03:41:05.134Z,32.57
2016-05-21T03:42:04.684Z,32.56
2016-05-21T03:43:04.686Z,32.56
2016-05-21T03:44:04.689Z,32.67
2016-05-21T03:45:04.707Z,32.56
2016-05-21T03:46:04.709Z,32.46
2016-05-21T03:47:04.712Z,32.65
2016-05-21T03:48:04.715Z,32.56
2016-05-21T03:49:04.718Z,32.46
2016-05-21T03:50:04.736Z,32.56
2016-05-21T03:51:04.583Z,32.56
2016-05-21T03:52:04.742Z,32.46
2016-05-21T03:53:04.760Z,32.56
2016-05-21T03:54:04.747Z,32.46
2016-05-21T03:55:04.750Z,32.56
2016-05-21T03:56:04.768Z,32.46
2016-05-21T03:57:04.771Z,32.46
2016-05-21T03:58:04.774Z,32.65
2016-05-21T03:59:04.777Z,32.57
2016-05-21T04:00:04.794Z,32.47
2016-05-21T04:01:04.797Z,32.56
2016-05-21T04:02:04.799Z,32.56
2016-05-21T04:03:04.802Z,32.56
2016-05-21T04:04:04.805Z,32.56
2016-05-21T04:05:04.808Z,32.75
2016-05-21T04:06:04.810Z,32.46
2016-05-21T04:07:04.673Z,32.57
2016-05-21T04:08:04.676Z,32.38
2016-05-21T04:09:04.850Z,32.65
2016-05-21T04:10:04.837Z,32.46
2016-05-21T04:11:05.199Z,32.67
2016-05-21T04:12:04.842Z,32.46
2016-05-21T04:13:04.861Z,32.36
2016-05-21T04:14:04.879Z,32.47
2016-05-21T04:15:04.867Z,32.46
2016-05-21T04:16:04.870Z,32.57
2016-05-21T04:17:04.887Z,32.65
2016-05-21T04:18:04.890Z,32.56
2016-05-21T04:19:04.892Z,32.56
2016-05-21T04:20:04.895Z,32.57
2016-05-21T04:21:04.914Z,32.36
2016-05-21T04:22:04.761Z,32.57
2016-05-21T04:23:04.919Z,32.65
2016-05-21T04:24:04.922Z,32.65
2016-05-21T04:25:04.924Z,32.56
2016-05-21T04:26:04.834Z,32.57
2016-05-21T04:27:04.944Z,32.46
2016-05-21T04:28:04.791Z,32.26
2016-05-21T04:29:04.950Z,32.67
2016-05-21T04:30:04.953Z,32.57
2016-05-21T04:31:04.956Z,32.28
2016-05-21T04:32:04.818Z,32.65
2016-05-21T04:33:04.977Z,32.47
2016-05-21T04:34:04.979Z,32.56
2016-05-21T04:35:04.982Z,32.56
2016-05-21T04:36:05.001Z,32.56
2016-05-21T04:37:05.003Z,32.47
2016-05-21T04:38:05.007Z,32.36
2016-05-21T04:39:05.009Z,32.46
2016-05-21T04:40:05.012Z,32.36
2016-05-21T04:41:05.030Z,32.38
2016-05-21T04:42:05.017Z,32.47
2016-05-21T04:43:05.035Z,32.46
2016-05-21T04:44:05.037Z,32.46
2016-05-21T04:45:05.040Z,32.36
2016-05-21T04:46:05.043Z,32.26
2016-05-21T04:47:05.062Z,32.17
2016-05-21T04:48:05.111Z,32.26
2016-05-21T04:49:05.067Z,32.26
2016-05-21T04:50:05.070Z,32.17
2016-05-21T04:51:05.089Z,32.07
2016-05-21T04:52:05.091Z,32.07
2016-05-21T04:53:05.094Z,32.09
2016-05-21T04:54:05.127Z,31.99
2016-05-21T04:55:05.099Z,31.8
2016-05-21T04:56:04.945Z,31.99
2016-05-21T04:57:05.120Z,31.78
2016-05-21T04:58:04.966Z,31.8
2016-05-21T04:59:05.124Z,31.6
2016-05-21T05:00:04.972Z,31.89
2016-05-21T05:01:04.990Z,31.89
2016-05-21T05:02:05.149Z,31.89
2016-05-21T05:03:05.151Z,31.89
2016-05-21T05:04:04.998Z,31.89
2016-05-21T05:05:05.172Z,32.09
2016-05-21T05:06:05.175Z,31.89
2016-05-21T05:07:05.177Z,31.8
2016-05-21T05:08:05.180Z,32.09
2016-05-21T05:09:05.182Z,31.99
2016-05-21T05:10:05.186Z,32.09
2016-05-21T05:11:05.204Z,31.59
2016-05-21T05:12:05.191Z,31.8
2016-05-21T05:13:05.210Z,32.09
2016-05-21T05:14:05.228Z,31.99
2016-05-21T05:15:05.231Z,31.8
2016-05-21T05:16:05.234Z,31.89
2016-05-21T05:17:05.237Z,31.99
2016-05-21T05:18:05.239Z,32.07
2016-05-21T05:19:05.242Z,31.8
2016-05-21T05:20:05.259Z,31.89
2016-05-21T05:21:05.106Z,31.7
2016-05-21T05:22:05.265Z,31.89
2016-05-21T05:23:05.267Z,31.89
2016-05-21T05:24:05.286Z,31.88
2016-05-21T05:25:05.461Z,31.8
2016-05-21T05:26:05.291Z,31.68
2016-05-21T05:27:05.294Z,31.8
2016-05-21T05:28:05.297Z,31.8
2016-05-21T05:29:05.299Z,31.41
2016-05-21T05:30:05.319Z,31.7
2016-05-21T05:31:05.321Z,31.6
2016-05-21T05:32:05.323Z,31.41
2016-05-21T05:33:05.341Z,31.51
2016-05-21T05:34:05.344Z,31.41
2016-05-21T05:35:05.363Z,31.12
2016-05-21T05:36:05.193Z,31.13
2016-05-21T05:37:05.369Z,30.85
2016-05-21T05:38:05.370Z,31.04
2016-05-21T05:39:05.217Z,30.46
2016-05-21T05:40:05.376Z,30.55
2016-05-21T05:41:05.426Z,30.46
2016-05-21T05:42:05.396Z,30.08
2016-05-21T05:43:05.399Z,29.99
2016-05-21T05:44:05.418Z,30.28
2016-05-21T05:45:05.421Z,29.99
2016-05-21T05:46:05.423Z,30.57
2016-05-21T05:47:05.442Z,30.47
2016-05-21T05:48:05.444Z,29.99
2016-05-21T05:49:05.447Z,30.08
2016-05-21T05:50:05.465Z,30.47
2016-05-21T05:51:05.468Z,30.08
2016-05-21T05:52:05.486Z,30.18
2016-05-21T05:53:05.333Z,30.28
2016-05-21T05:54:05.336Z,30.18
2016-05-21T05:55:05.494Z,30.18
2016-05-21T05:56:05.513Z,30.28
2016-05-21T05:57:05.516Z,30.29
2016-05-21T05:58:05.519Z,30.08
2016-05-21T05:59:05.521Z,29.91
2016-05-21T06:00:05.539Z,29.8
2016-05-21T06:01:05.541Z,29.99
2016-05-21T06:02:05.560Z,30.47
2016-05-21T06:03:05.563Z,29.9
2016-05-21T06:04:05.410Z,29.9
2016-05-21T06:05:05.584Z,29.9
2016-05-21T06:06:05.586Z,30.28
2016-05-21T06:07:05.605Z,30.18
2016-05-21T06:08:05.451Z,30.08
2016-05-21T06:09:05.610Z,30.38
2016-05-21T06:10:05.613Z,30.76
2016-05-21T06:11:06.069Z,30.47
2016-05-21T06:12:05.634Z,30.76
2016-05-21T06:13:05.637Z,30.38
2016-05-21T06:14:05.655Z,30.18
2016-05-21T06:15:05.657Z,29.9
2016-05-21T06:16:05.660Z,29.99
2016-05-21T06:17:05.679Z,30.08
2016-05-21T06:18:05.681Z,29.99
2016-05-21T06:19:05.684Z,30.08
2016-05-21T06:20:05.703Z,30.08
2016-05-21T06:21:05.705Z,30.18
2016-05-21T06:22:05.708Z,30.18
2016-05-21T06:23:05.726Z,30.18
2016-05-21T06:24:05.729Z,30.08
2016-05-21T06:25:05.731Z,30.18
2016-05-21T06:26:05.750Z,30.08
2016-05-21T06:27:05.753Z,29.99
2016-05-21T06:28:05.755Z,30.38
2016-05-21T06:29:05.758Z,30.18
2016-05-21T06:30:05.792Z,30.08
2016-05-21T06:31:05.778Z,30.08
2016-05-21T06:32:05.781Z,29.99
2016-05-21T06:33:05.799Z,30.08
2016-05-21T06:34:05.802Z,30.28
2016-05-21T06:35:05.664Z,29.81
2016-05-21T06:36:05.808Z,29.91
2016-05-21T06:37:05.670Z,30.2
2016-05-21T06:38:05.829Z,30.2
2016-05-21T06:39:05.847Z,29.91
2016-05-21T06:40:05.850Z,29.9
2016-05-21T06:41:06.166Z,29.99
2016-05-21T06:42:05.870Z,30.28
2016-05-21T06:43:05.890Z,30.08
2016-05-21T06:44:05.876Z,30.08
2016-05-21T06:45:05.879Z,30.18
2016-05-21T06:46:05.897Z,30.08
2016-05-21T06:47:05.915Z,30.47
2016-05-21T06:48:05.903Z,30.36
2016-05-21T06:49:05.906Z,30.46
2016-05-21T06:50:05.924Z,30.85
2016-05-21T06:51:05.926Z,31.13
2016-05-21T06:52:05.929Z,31.34
2016-05-21T06:53:05.931Z,31.52
2016-05-21T06:54:05.950Z,31.52
2016-05-21T06:55:05.953Z,31.91
2016-05-21T06:56:06.300Z,32.01
2016-05-21T06:57:05.864Z,32.01
2016-05-21T06:58:05.976Z,32.1
2016-05-21T06:59:05.979Z,32.2
2016-05-21T07:00:05.825Z,32.39
2016-05-21T07:01:06.000Z,32.49
2016-05-21T07:02:06.159Z,32.39
2016-05-21T07:03:06.005Z,32.39
2016-05-21T07:04:06.024Z,32.2
2016-05-21T07:05:06.027Z,31.91
2016-05-21T07:06:06.030Z,32.01
2016-05-21T07:07:06.032Z,32.1
2016-05-21T07:08:05.878Z,32.01
2016-05-21T07:09:06.053Z,32.01
2016-05-21T07:10:06.055Z,31.81
2016-05-21T07:11:06.510Z,32.1
2016-05-21T07:12:06.077Z,32.01
2016-05-21T07:13:06.079Z,32.2
2016-05-21T07:14:06.082Z,32.2
2016-05-21T07:15:06.085Z,32.01
2016-05-21T07:16:06.087Z,31.91
2016-05-21T07:17:06.106Z,32.2
2016-05-21T07:18:06.124Z,31.81
2016-05-21T07:19:06.112Z,32.01
2016-05-21T07:20:06.129Z,32.1
2016-05-21T07:21:06.132Z,31.91
2016-05-21T07:22:06.135Z,32.01
2016-05-21T07:23:06.137Z,31.81
2016-05-21T07:24:06.140Z,31.81
2016-05-21T07:25:06.158Z,31.81
2016-05-21T07:26:06.177Z,31.71
2016-05-21T07:27:06.289Z,31.71
2016-05-21T07:28:06.181Z,31.71
2016-05-21T07:29:06.185Z,31.52
2016-05-21T07:30:06.172Z,31.52
2016-05-21T07:31:06.190Z,31.43
2016-05-21T07:32:06.209Z,31.62
2016-05-21T07:33:06.195Z,31.43
2016-05-21T07:34:06.058Z,31.13
2016-05-21T07:35:06.216Z,31.25
2016-05-21T07:36:06.219Z,31.05
2016-05-21T07:37:06.238Z,30.86
2016-05-21T07:38:06.240Z,31.05
2016-05-21T07:39:06.086Z,30.86
2016-05-21T07:40:06.246Z,30.28
2016-05-21T07:41:06.311Z,30.68
2016-05-21T07:42:06.391Z,30.29
2016-05-21T07:43:06.269Z,30.2
2016-05-21T07:44:06.272Z,30.29
2016-05-21T07:45:06.290Z,30.2
2016-05-21T07:46:06.293Z,30.2
2016-05-21T07:47:06.296Z,30.2
2016-05-21T07:48:06.315Z,30.29
2016-05-21T07:49:06.301Z,30
2016-05-21T07:50:06.163Z,30.29
2016-05-21T07:51:06.323Z,30.29
2016-05-21T07:52:06.168Z,30.49
2016-05-21T07:53:06.342Z,30.29
2016-05-21T07:54:06.346Z,30.1
2016-05-21T07:55:06.348Z,30
2016-05-21T07:56:06.742Z,30.29
2016-05-21T07:57:06.370Z,30.29
2016-05-21T07:58:06.372Z,30.39
2016-05-21T07:59:06.375Z,30.1
2016-05-21T08:00:06.378Z,30.29
2016-05-21T08:01:06.396Z,30.1
2016-05-21T08:03:06.401Z,30.2
2016-05-21T08:04:06.419Z,30.08
2016-05-21T08:05:06.422Z,30.29
2016-05-21T08:06:06.425Z,30
2016-05-21T08:07:06.444Z,29.99
2016-05-21T08:08:06.446Z,30.2
2016-05-21T08:09:06.449Z,30.28
2016-05-21T08:10:06.452Z,30.29
2016-05-21T08:11:06.469Z,30.47
2016-05-21T08:12:06.488Z,30.28
2016-05-21T08:13:06.475Z,30.57
2016-05-21T08:14:06.321Z,30.86
2016-05-21T08:15:06.497Z,30.47
2016-05-21T08:16:06.498Z,30.47
2016-05-21T08:17:06.502Z,30.38
2016-05-21T08:18:06.504Z,30.47
2016-05-21T08:19:06.507Z,30.57
2016-05-21T08:20:06.526Z,30.47
2016-05-21T08:21:06.528Z,30.57
2016-05-21T08:22:06.531Z,30.66
2016-05-21T08:23:06.549Z,30.47
2016-05-21T08:24:06.551Z,30.57
2016-05-21T08:25:06.554Z,30.57
2016-05-21T08:26:06.557Z,30.38
2016-05-21T08:27:06.559Z,30.76
2016-05-21T08:28:06.578Z,30.47
2016-05-21T08:29:06.581Z,30.38
2016-05-21T08:30:06.584Z,30.57
2016-05-21T08:31:06.586Z,30.76
2016-05-21T08:32:06.604Z,30.18
2016-05-21T08:33:06.606Z,30.76
2016-05-21T08:34:06.625Z,30.28
2016-05-21T08:35:06.612Z,30.38
2016-05-21T08:36:06.631Z,30.47
2016-05-21T08:37:06.634Z,30.76
2016-05-21T08:38:06.652Z,30.47
2016-05-21T08:39:06.655Z,30.28
2016-05-21T08:40:06.657Z,30.66
2016-05-21T08:41:06.660Z,30.86
2016-05-21T08:42:06.788Z,30.47
2016-05-21T08:43:06.680Z,30.57
2016-05-21T08:44:06.683Z,30.86
2016-05-21T08:45:06.686Z,30.86
2016-05-21T08:46:06.688Z,30.66
2016-05-21T08:47:06.707Z,30.66
2016-05-21T08:48:06.710Z,30.96
2016-05-21T08:49:06.713Z,30.66
2016-05-21T08:50:06.574Z,30.86
2016-05-21T08:51:06.734Z,30.76
2016-05-21T08:52:06.736Z,30.66
2016-05-21T08:53:06.754Z,30.86
2016-05-21T08:54:06.757Z,30.66
2016-05-21T08:55:06.760Z,30.66
2016-05-21T08:56:06.778Z,30.57
2016-05-21T08:57:06.625Z,30.66
2016-05-21T08:58:06.784Z,30.66
2016-05-21T08:59:06.631Z,31.05
2016-05-21T09:00:06.648Z,30.47
2016-05-21T09:01:06.807Z,30.47
2016-05-21T09:02:07.138Z,30.47
2016-05-21T09:03:06.813Z,30.57
2016-05-21T09:04:06.815Z,30.66
2016-05-21T09:05:06.833Z,30.57
2016-05-21T09:06:06.837Z,30.66
2016-05-21T09:07:06.839Z,30.86
2016-05-21T09:08:06.842Z,30.66
2016-05-21T09:09:06.861Z,30.86
2016-05-21T09:10:06.864Z,30.86
2016-05-21T09:11:06.866Z,30.66
2016-05-21T09:12:06.884Z,30.57
2016-05-21T09:13:06.886Z,30.66
2016-05-21T09:14:06.889Z,30.66
2016-05-21T09:15:06.892Z,30.47
2016-05-21T09:16:06.910Z,30.66
2016-05-21T09:17:06.913Z,30.47
2016-05-21T09:18:06.954Z,30.86
2016-05-21T09:19:06.978Z,30.86
2016-05-21T09:20:07.001Z,30.66
2016-05-21T09:21:07.025Z,30.47
2016-05-21T09:22:07.049Z,30.76
2016-05-21T09:23:07.073Z,30.66
2016-05-21T09:24:07.084Z,30.57
2016-05-21T09:25:07.095Z,30.86
2016-05-21T09:26:06.949Z,30.38
2016-05-21T09:27:07.131Z,30.96
2016-05-21T09:28:07.136Z,30.47
2016-05-21T09:29:07.141Z,30.76
2016-05-21T09:30:07.162Z,30.47
2016-05-21T09:31:07.167Z,30.96
2016-05-21T09:32:07.173Z,30.38
2016-05-21T09:33:07.177Z,30.38
2016-05-21T09:34:07.212Z,30.66
2016-05-21T09:35:07.201Z,30.47
2016-05-21T09:36:07.204Z,30.76
2016-05-21T09:37:07.224Z,30.66
2016-05-21T09:38:07.227Z,30.66
2016-05-21T09:39:07.231Z,30.66
2016-05-21T09:40:07.233Z,30.86
2016-05-21T09:41:07.236Z,30.57
2016-05-21T09:42:07.255Z,30.66
2016-05-21T09:43:07.258Z,30.66
2016-05-21T09:44:07.276Z,30.66
2016-05-21T09:45:07.278Z,30.86
2016-05-21T09:46:07.281Z,30.96
2016-05-21T09:47:07.284Z,31.05
2016-05-21T09:48:07.146Z,30.96
2016-05-21T09:49:07.306Z,30.96
2016-05-21T09:50:07.307Z,30.96
2016-05-21T09:51:07.311Z,30.96
2016-05-21T09:52:07.328Z,30.47
2016-05-21T09:53:07.331Z,30.86
2016-05-21T09:54:07.333Z,30.86
2016-05-21T09:55:07.352Z,30.76
2016-05-21T09:56:07.183Z,30.86
2016-05-21T09:57:07.763Z,31.15
2016-05-21T09:58:07.360Z,30.76
2016-05-21T09:59:07.363Z,30.86
2016-05-21T10:00:07.381Z,30.96
2016-05-21T10:01:07.227Z,31.05
2016-05-21T10:02:07.386Z,30.86
2016-05-21T10:03:07.405Z,30.76
2016-05-21T10:04:07.408Z,30.96
2016-05-21T10:05:07.410Z,31.05
2016-05-21T10:06:07.413Z,31.05
2016-05-21T10:07:07.432Z,30.66
2016-05-21T10:08:07.434Z,30.76
2016-05-21T10:09:07.468Z,30.96
2016-05-21T10:10:07.440Z,30.76
2016-05-21T10:11:07.457Z,30.86
2016-05-21T10:12:07.460Z,30.86
2016-05-21T10:13:07.479Z,30.96
2016-05-21T10:14:07.481Z,31.05
2016-05-21T10:15:07.484Z,30.96
2016-05-21T10:16:07.486Z,30.86
2016-05-21T10:17:07.490Z,30.96
2016-05-21T10:18:07.508Z,30.96
2016-05-21T10:19:07.353Z,30.86
2016-05-21T10:20:07.356Z,30.66
2016-05-21T10:21:07.517Z,30.76
2016-05-21T10:22:07.534Z,30.96
2016-05-21T10:23:07.537Z,30.96
2016-05-21T10:24:07.540Z,31.15
2016-05-21T10:25:07.558Z,31.15
2016-05-21T10:26:07.560Z,30.86
2016-05-21T10:27:07.407Z,30.47
2016-05-21T10:28:07.566Z,30.96
2016-05-21T10:29:07.428Z,30.86
2016-05-21T10:30:07.586Z,30.86
2016-05-21T10:31:07.589Z,30.76
2016-05-21T10:32:07.624Z,30.76
2016-05-21T10:33:07.611Z,30.76
2016-05-21T10:34:07.457Z,30.86
2016-05-21T10:35:07.616Z,30.76
2016-05-21T10:36:07.635Z,30.96
2016-05-21T10:37:07.638Z,30.57
2016-05-21T10:38:07.640Z,30.86
2016-05-21T10:39:07.643Z,30.86
2016-05-21T10:40:07.646Z,30.86
2016-05-21T10:41:07.507Z,30.96
2016-05-21T10:42:07.603Z,31.05
2016-05-21T10:43:07.668Z,30.76
2016-05-21T10:44:07.671Z,30.96
2016-05-21T10:45:07.690Z,30.76
2016-05-21T10:46:07.692Z,30.86
2016-05-21T10:47:07.695Z,30.96
2016-05-21T10:48:07.901Z,31.05
2016-05-21T10:49:07.717Z,31.05
2016-05-21T10:50:07.562Z,31.15
2016-05-21T10:51:07.722Z,30.76
2016-05-21T10:52:07.725Z,31.15
2016-05-21T10:53:07.743Z,31.15
2016-05-21T10:54:07.745Z,30.86
2016-05-21T10:55:07.764Z,30.86
2016-05-21T10:56:07.767Z,30.66
2016-05-21T10:57:07.770Z,31.25
2016-05-21T10:58:07.771Z,31.05
2016-05-21T10:59:07.790Z,30.86
2016-05-21T11:00:07.792Z,31.05
2016-05-21T11:01:07.639Z,31.25
2016-05-21T11:02:08.001Z,31.15
2016-05-21T11:03:07.801Z,30.76
2016-05-21T11:04:07.819Z,30.86
2016-05-21T11:05:07.821Z,30.86
2016-05-21T11:06:07.668Z,31.05
2016-05-21T11:07:07.827Z,30.86
2016-05-21T11:08:07.846Z,30.76
2016-05-21T11:09:07.848Z,30.96
2016-05-21T11:10:07.694Z,30.86
2016-05-21T11:11:07.869Z,31.15
2016-05-21T11:12:07.841Z,30.76
2016-05-21T11:13:07.874Z,30.96
2016-05-21T11:14:07.893Z,30.96
2016-05-21T11:15:07.880Z,31.05
2016-05-21T11:16:07.882Z,31.25
2016-05-21T11:17:07.901Z,30.86
2016-05-21T11:18:07.920Z,31.15
2016-05-21T11:19:07.922Z,31.25
2016-05-21T11:20:07.925Z,31.25
2016-05-21T11:21:07.928Z,31.05
2016-05-21T11:22:07.773Z,31.05
2016-05-21T11:23:07.948Z,31.05
2016-05-21T11:24:07.951Z,31.05
2016-05-21T11:25:07.953Z,30.66
2016-05-21T11:26:07.816Z,31.15
2016-05-21T11:27:08.130Z,31.05
2016-05-21T11:28:07.978Z,31.15
2016-05-21T11:29:07.980Z,30.96
2016-05-21T11:30:07.983Z,31.05
2016-05-21T11:31:08.000Z,31.15
2016-05-21T11:32:08.003Z,31.15
2016-05-21T11:33:07.850Z,31.15
2016-05-21T11:34:08.025Z,31.25
2016-05-21T11:35:08.027Z,31.05
2016-05-21T11:36:08.030Z,31.05
2016-05-21T11:37:08.033Z,30.76
2016-05-21T11:38:08.052Z,31.05
2016-05-21T11:39:08.069Z,30.96
2016-05-21T11:40:07.900Z,31.05
2016-05-21T11:41:08.059Z,31.15
2016-05-21T11:42:08.062Z,31.05
2016-05-21T11:43:08.079Z,31.05
2016-05-21T11:44:07.927Z,31.05
2016-05-21T11:45:08.085Z,30.86
2016-05-21T11:46:08.088Z,31.15
2016-05-21T11:47:08.107Z,31.15
2016-05-21T11:48:08.110Z,31.15
2016-05-21T11:49:07.971Z,31.05
2016-05-21T11:50:08.115Z,31.15
2016-05-21T11:51:08.133Z,31.15
2016-05-21T11:52:08.136Z,31.05
2016-05-21T11:53:08.139Z,30.96
2016-05-21T11:54:08.172Z,31.15
2016-05-21T11:55:08.003Z,31.25
2016-05-21T11:56:08.162Z,31.15
2016-05-21T11:57:08.259Z,30.96
2016-05-21T11:58:08.183Z,31.15
2016-05-21T11:59:08.186Z,31.15
2016-05-21T12:00:08.188Z,31.15
2016-05-21T12:01:08.191Z,31.05
2016-05-21T12:02:08.208Z,31.15
2016-05-21T12:03:08.212Z,31.15
2016-05-21T12:04:08.215Z,30.96
2016-05-21T12:05:08.217Z,30.76
2016-05-21T12:06:08.235Z,30.86
2016-05-21T12:07:08.238Z,30.86
2016-05-21T12:08:08.241Z,31.05
2016-05-21T12:09:08.260Z,31.15
2016-05-21T12:10:08.263Z,31.05
2016-05-21T12:11:08.265Z,31.05
2016-05-21T12:12:08.268Z,31.15
2016-05-21T12:13:08.285Z,31.05
2016-05-21T12:14:08.288Z,31.15
2016-05-21T12:15:08.291Z,31.05
2016-05-21T12:16:08.294Z,31.15
2016-05-21T12:17:08.312Z,31.05
2016-05-21T12:18:08.315Z,31.05
2016-05-21T12:19:08.318Z,31.05
2016-05-21T12:20:08.320Z,31.15
2016-05-21T12:21:08.339Z,31.05
2016-05-21T12:22:08.342Z,31.05
2016-05-21T12:23:08.344Z,31.15
2016-05-21T12:24:08.347Z,31.15
2016-05-21T12:25:08.365Z,31.25
2016-05-21T12:26:08.367Z,30.86
2016-05-21T12:27:08.417Z,31.15
2016-05-21T12:28:08.389Z,31.05
2016-05-21T12:29:08.391Z,30.86
2016-05-21T12:30:08.394Z,30.96
2016-05-21T12:31:08.397Z,31.05
2016-05-21T12:32:08.415Z,30.96
2016-05-21T12:33:08.418Z,31.25
2016-05-21T12:34:08.420Z,31.15
2016-05-21T12:35:08.423Z,31.15
2016-05-21T12:36:08.425Z,31.05
2016-05-21T12:37:08.444Z,31.05
2016-05-21T12:38:08.462Z,31.15
2016-05-21T12:39:08.450Z,31.15
2016-05-21T12:40:08.468Z,31.25
2016-05-21T12:41:08.470Z,31.05
2016-05-21T12:42:08.474Z,31.25
2016-05-21T12:43:08.476Z,31.05
2016-05-21T12:44:08.494Z,31.05
2016-05-21T12:45:08.497Z,31.05
2016-05-21T12:46:08.515Z,31.05
2016-05-21T12:47:08.534Z,31.05
2016-05-21T12:48:08.520Z,30.86
2016-05-21T12:49:08.523Z,30.86
2016-05-21T12:50:08.526Z,30.96
2016-05-21T12:51:08.545Z,30.96
2016-05-21T12:52:08.548Z,30.76
2016-05-21T12:53:08.550Z,30.96
2016-05-21T12:54:08.568Z,31.05
2016-05-21T12:55:08.570Z,31.05